sensor_id;sensor_type;location;lat;lon;timestamp;pressure;altitude;pressure_sealevel;temperature;humidity
35694;BME280;21812;55.536;37.664;2022-12-22T00:02:16;98927.56;;;3.04;73.39
35694;BME280;21812;55.536;37.664;2022-12-22T00:05:11;98944.75;;;3.17;73.08
35694;BME280;21812;55.536;37.664;2022-12-22T00:07:55;98938.81;;;3.15;73.15
35694;BME280;21812;55.536;37.664;2022-12-22T00:10:40;98946.22;;;3.19;73.12
35694;BME280;21812;55.536;37.664;2022-12-22T00:13:24;98940.50;;;3.24;73.11
35694;BME280;21812;55.536;37.664;2022-12-22T00:16:09;98932.88;;;3.21;72.26
35694;BME280;21812;55.536;37.664;2022-12-22T00:18:54;98933.84;;;3.20;73.05
35694;BME280;21812;55.536;37.664;2022-12-22T00:21:38;98941.03;;;2.93;73.32
35694;BME280;21812;55.536;37.664;2022-12-22T00:24:22;98935.97;;;3.08;75.53
35694;BME280;21812;55.536;37.664;2022-12-22T00:27:25;98883.88;;;2.93;74.29
35694;BME280;21812;55.536;37.664;2022-12-22T00:30:15;98941.00;;;3.36;73.54
35694;BME280;21812;55.536;37.664;2022-12-22T00:33:00;98934.72;;;3.28;72.52
35694;BME280;21812;55.536;37.664;2022-12-22T00:35:45;98930.84;;;3.06;73.01
35694;BME280;21812;55.536;37.664;2022-12-22T00:38:29;98943.44;;;3.21;73.05
35694;BME280;21812;55.536;37.664;2022-12-22T00:41:13;98946.66;;;2.90;73.46
35694;BME280;21812;55.536;37.664;2022-12-22T00:43:57;98946.66;;;2.90;73.91
35694;BME280;21812;55.536;37.664;2022-12-22T00:46:43;98881.44;;;2.58;74.03
35694;BME280;21812;55.536;37.664;2022-12-22T00:49:29;98935.47;;;2.96;74.48
35694;BME280;21812;55.536;37.664;2022-12-22T00:52:15;98942.03;;;2.84;73.41
35694;BME280;21812;55.536;37.664;2022-12-22T00:55:02;98934.56;;;2.79;73.91
35694;BME280;21812;55.536;37.664;2022-12-22T00:57:47;98933.69;;;2.62;74.64
35694;BME280;21812;55.536;37.664;2022-12-22T01:00:31;98920.47;;;2.54;75.13
35694;BME280;21812;55.536;37.664;2022-12-22T01:03:15;98936.84;;;2.74;75.95
35694;BME280;21812;55.536;37.664;2022-12-22T01:06:01;98885.19;;;2.47;74.66
35694;BME280;21812;55.536;37.664;2022-12-22T01:08:46;98922.53;;;2.77;74.98
35694;BME280;21812;55.536;37.664;2022-12-22T01:11:32;98852.22;;;2.34;74.55
35694;BME280;21812;55.536;37.664;2022-12-22T01:14:16;98849.38;;;2.28;74.74
35694;BME280;21812;55.536;37.664;2022-12-22T01:17:00;98905.13;;;2.92;75.37
35694;BME280;21812;55.536;37.664;2022-12-22T01:19:45;98910.72;;;2.89;74.43
35694;BME280;21812;55.536;37.664;2022-12-22T01:22:29;98898.69;;;2.86;74.60
35694;BME280;21812;55.536;37.664;2022-12-22T01:25:16;98845.53;;;2.57;74.79
35694;BME280;21812;55.536;37.664;2022-12-22T01:28:00;98898.19;;;2.91;74.45
35694;BME280;21812;55.536;37.664;2022-12-22T01:30:45;98894.50;;;2.76;74.21
35694;BME280;21812;55.536;37.664;2022-12-22T01:33:29;98895.94;;;2.53;75.09
35694;BME280;21812;55.536;37.664;2022-12-22T01:36:13;98884.59;;;2.61;75.97
35694;BME280;21812;55.536;37.664;2022-12-22T01:38:57;98887.78;;;2.30;75.49
35694;BME280;21812;55.536;37.664;2022-12-22T01:41:42;98888.06;;;2.27;77.05
35694;BME280;21812;55.536;37.664;2022-12-22T01:44:27;98887.44;;;2.33;76.89
35694;BME280;21812;55.536;37.664;2022-12-22T01:50:36;98877.84;;;2.24;76.60
35694;BME280;21812;55.536;37.664;2022-12-22T01:53:23;98869.91;;;2.16;76.87
35694;BME280;21812;55.536;37.664;2022-12-22T01:56:08;98890.00;;;2.17;77.09
35694;BME280;21812;55.536;37.664;2022-12-22T01:58:55;98871.44;;;2.27;77.96
35694;BME280;21812;55.536;37.664;2022-12-22T02:01:40;98872.56;;;2.24;77.02
35694;BME280;21812;55.536;37.664;2022-12-22T02:04:29;98835.84;;;1.88;77.18
35694;BME280;21812;55.536;37.664;2022-12-22T02:13:58;98884.06;;;1.89;77.95
35694;BME280;21812;55.536;37.664;2022-12-22T02:16:55;98876.69;;;1.92;78.41
35694;BME280;21812;55.536;37.664;2022-12-22T02:26:32;98811.16;;;1.37;78.75
35694;BME280;21812;55.536;37.664;2022-12-22T02:29:31;98826.66;;;1.40;79.78
35694;BME280;21812;55.536;37.664;2022-12-22T02:32:16;98873.53;;;1.63;79.99
35694;BME280;21812;55.536;37.664;2022-12-22T02:35:00;98865.47;;;1.64;79.93
35694;BME280;21812;55.536;37.664;2022-12-22T02:42:00;98815.81;;;1.43;80.04
35694;BME280;21812;55.536;37.664;2022-12-22T02:44:24;98799.47;;;1.31;79.62
35694;BME280;21812;55.536;37.664;2022-12-22T02:47:22;98869.91;;;1.64;79.96
35694;BME280;21812;55.536;37.664;2022-12-22T02:53:00;98863.91;;;1.53;80.40
35694;BME280;21812;55.536;37.664;2022-12-22T02:55:46;98872.22;;;1.67;80.57
35694;BME280;21812;55.536;37.664;2022-12-22T02:58:31;98865.34;;;1.66;80.53
35694;BME280;21812;55.536;37.664;2022-12-22T03:01:16;98860.88;;;1.66;80.60
35694;BME280;21812;55.536;37.664;2022-12-22T03:04:00;98865.69;;;1.71;80.54
35694;BME280;21812;55.536;37.664;2022-12-22T03:06:44;98873.28;;;1.56;80.54
35694;BME280;21812;55.536;37.664;2022-12-22T03:09:28;98871.44;;;1.48;80.72
35694;BME280;21812;55.536;37.664;2022-12-22T03:12:13;98863.84;;;1.45;80.85
35694;BME280;21812;55.536;37.664;2022-12-22T03:14:57;98866.94;;;1.41;81.20
35694;BME280;21812;55.536;37.664;2022-12-22T03:17:41;98867.69;;;1.33;81.63
35694;BME280;21812;55.536;37.664;2022-12-22T03:20:25;98858.25;;;1.22;81.88
35694;BME280;21812;55.536;37.664;2022-12-22T03:23:09;98868.00;;;1.30;82.49
35694;BME280;21812;55.536;37.664;2022-12-22T03:25:53;98861.47;;;1.16;82.61
35694;BME280;21812;55.536;37.664;2022-12-22T03:28:28;98874.09;;;1.30;83.13
35694;BME280;21812;55.536;37.664;2022-12-22T03:31:04;98809.03;;;0.96;83.14
35694;BME280;21812;55.536;37.664;2022-12-22T03:33:31;98851.19;;;1.23;82.95
35694;BME280;21812;55.536;37.664;2022-12-22T03:35:58;98859.13;;;1.31;83.05
35694;BME280;21812;55.536;37.664;2022-12-22T03:38:24;98863.03;;;1.27;83.02
35694;BME280;21812;55.536;37.664;2022-12-22T03:40:50;98860.94;;;1.30;82.88
35694;BME280;21812;55.536;37.664;2022-12-22T03:43:16;98857.16;;;1.33;83.01
35694;BME280;21812;55.536;37.664;2022-12-22T03:46:01;98857.16;;;1.33;82.96
35694;BME280;21812;55.536;37.664;2022-12-22T03:48:43;98864.91;;;1.34;82.97
35694;BME280;21812;55.536;37.664;2022-12-22T03:51:09;98859.28;;;1.29;83.06
35694;BME280;21812;55.536;37.664;2022-12-22T03:53:35;98854.19;;;1.28;82.84
35694;BME280;21812;55.536;37.664;2022-12-22T03:56:01;98862.28;;;1.34;83.16
35694;BME280;21812;55.536;37.664;2022-12-22T03:58:27;98860.78;;;1.32;83.12
35694;BME280;21812;55.536;37.664;2022-12-22T04:01:04;98831.84;;;1.14;83.13
35694;BME280;21812;55.536;37.664;2022-12-22T04:03:31;98845.09;;;1.22;83.29
35694;BME280;21812;55.536;37.664;2022-12-22T04:05:57;98843.00;;;1.26;83.28
35694;BME280;21812;55.536;37.664;2022-12-22T04:08:22;98860.78;;;1.32;83.02
35694;BME280;21812;55.536;37.664;2022-12-22T04:10:48;98865.00;;;1.25;83.19
35694;BME280;21812;55.536;37.664;2022-12-22T04:13:32;98855.91;;;1.19;83.27
35694;BME280;21812;55.536;37.664;2022-12-22T04:15:58;98862.31;;;1.16;83.11
35694;BME280;21812;55.536;37.664;2022-12-22T04:18:24;98863.94;;;1.17;83.61
35694;BME280;21812;55.536;37.664;2022-12-22T04:20:49;98859.00;;;1.14;83.66
35694;BME280;21812;55.536;37.664;2022-12-22T04:23:16;98813.09;;;0.91;83.93
35694;BME280;21812;55.536;37.664;2022-12-22T04:25:41;98853.88;;;1.13;84.06
35694;BME280;21812;55.536;37.664;2022-12-22T04:28:07;98831.25;;;1.02;84.00
35694;BME280;21812;55.536;37.664;2022-12-22T04:30:33;98846.00;;;1.13;84.06
35694;BME280;21812;55.536;37.664;2022-12-22T04:32:58;98853.06;;;1.12;84.42
35694;BME280;21812;55.536;37.664;2022-12-22T04:35:24;98856.50;;;1.13;84.38
35694;BME280;21812;55.536;37.664;2022-12-22T04:37:49;98846.81;;;1.13;84.54
35694;BME280;21812;55.536;37.664;2022-12-22T04:40:18;98847.34;;;1.17;84.59
35694;BME280;21812;55.536;37.664;2022-12-22T04:42:44;98848.69;;;1.21;84.31
35694;BME280;21812;55.536;37.664;2022-12-22T04:45:09;98862.31;;;1.16;84.18
35694;BME280;21812;55.536;37.664;2022-12-22T04:47:35;98859.00;;;1.14;84.53
35694;BME280;21812;55.536;37.664;2022-12-22T04:50:01;98863.28;;;1.15;84.23
35694;BME280;21812;55.536;37.664;2022-12-22T04:52:27;98858.69;;;1.17;84.39
35694;BME280;21812;55.536;37.664;2022-12-22T04:54:52;98852.06;;;1.13;84.43
35694;BME280;21812;55.536;37.664;2022-12-22T04:57:18;98870.25;;;1.25;84.31
35694;BME280;21812;55.536;37.664;2022-12-22T04:59:45;98867.34;;;1.28;84.39
35694;BME280;21812;55.536;37.664;2022-12-22T05:02:11;98864.38;;;1.31;84.27
35694;BME280;21812;55.536;37.664;2022-12-22T05:04:37;98868.16;;;1.28;84.13
35694;BME280;21812;55.536;37.664;2022-12-22T05:07:03;98850.50;;;1.21;83.94
35694;BME280;21812;55.536;37.664;2022-12-22T05:09:29;98858.97;;;1.32;83.90
35694;BME280;21812;55.536;37.664;2022-12-22T05:11:55;98843.13;;;1.24;83.90
35694;BME280;21812;55.536;37.664;2022-12-22T05:14:20;98872.66;;;1.36;83.78
35694;BME280;21812;55.536;37.664;2022-12-22T05:16:46;98875.56;;;1.33;83.63
35694;BME280;21812;55.536;37.664;2022-12-22T05:19:12;98865.97;;;1.24;83.68
35694;BME280;21812;55.536;37.664;2022-12-22T05:21:37;98881.16;;;1.30;83.97
35694;BME280;21812;55.536;37.664;2022-12-22T05:24:03;98887.09;;;1.32;84.13
35694;BME280;21812;55.536;37.664;2022-12-22T05:26:29;98877.69;;;1.29;84.00
35694;BME280;21812;55.536;37.664;2022-12-22T05:28:55;98890.31;;;1.44;83.65
35694;BME280;21812;55.536;37.664;2022-12-22T05:31:22;98888.59;;;1.34;83.64
35694;BME280;21812;55.536;37.664;2022-12-22T05:33:48;98911.22;;;1.45;83.53
35694;BME280;21812;55.536;37.664;2022-12-22T05:36:14;98908.25;;;1.48;83.41
35694;BME280;21812;55.536;37.664;2022-12-22T05:38:40;98909.13;;;1.49;83.43
35694;BME280;21812;55.536;37.664;2022-12-22T05:41:06;98901.88;;;1.51;83.17
35694;BME280;21812;55.536;37.664;2022-12-22T05:43:33;98897.75;;;1.48;82.80
35694;BME280;21812;55.536;37.664;2022-12-22T05:46:03;98903.22;;;1.55;82.90
35694;BME280;21812;55.536;37.664;2022-12-22T05:48:30;98897.16;;;1.54;82.62
35694;BME280;21812;55.536;37.664;2022-12-22T05:50:56;98897.16;;;1.54;82.45
35694;BME280;21812;55.536;37.664;2022-12-22T05:53:21;98900.75;;;1.53;82.34
35694;BME280;21812;55.536;37.664;2022-12-22T05:55:47;98905.88;;;1.55;82.59
35694;BME280;21812;55.536;37.664;2022-12-22T05:58:13;98907.06;;;1.61;82.52
35694;BME280;21812;55.536;37.664;2022-12-22T06:00:39;98908.69;;;1.62;82.23
35694;BME280;21812;55.536;37.664;2022-12-22T06:03:04;98906.44;;;1.67;82.07
35694;BME280;21812;55.536;37.664;2022-12-22T06:05:30;98886.63;;;1.54;82.07
35694;BME280;21812;55.536;37.664;2022-12-22T06:07:56;98903.38;;;1.71;82.04
35694;BME280;21812;55.536;37.664;2022-12-22T06:10:22;98902.31;;;1.64;81.83
35694;BME280;21812;55.536;37.664;2022-12-22T06:12:48;98895.03;;;1.58;81.73
35694;BME280;21812;55.536;37.664;2022-12-22T06:15:14;98904.97;;;1.64;81.94
35694;BME280;21812;55.536;37.664;2022-12-22T06:17:39;98900.50;;;1.65;81.90
35694;BME280;21812;55.536;37.664;2022-12-22T06:20:06;98911.41;;;1.70;82.13
35694;BME280;21812;55.536;37.664;2022-12-22T06:22:32;98903.88;;;1.75;81.85
35694;BME280;21812;55.536;37.664;2022-12-22T06:24:58;98862.88;;;1.46;81.59
35694;BME280;21812;55.536;37.664;2022-12-22T06:27:24;98904.19;;;1.72;81.69
35694;BME280;21812;55.536;37.664;2022-12-22T06:29:49;98913.94;;;1.80;81.39
35694;BME280;21812;55.536;37.664;2022-12-22T06:32:15;98910.31;;;1.81;81.33
35694;BME280;21812;55.536;37.664;2022-12-22T06:34:40;98915.78;;;1.79;81.23
35694;BME280;21812;55.536;37.664;2022-12-22T06:37:06;98900.56;;;1.73;81.29
35694;BME280;21812;55.536;37.664;2022-12-22T06:39:32;98902.94;;;1.84;81.15
35694;BME280;21812;55.536;37.664;2022-12-22T06:41:57;98900.31;;;1.84;81.09
35694;BME280;21812;55.536;37.664;2022-12-22T06:44:42;98874.72;;;1.68;80.80
35694;BME280;21812;55.536;37.664;2022-12-22T06:47:07;98910.19;;;1.82;80.61
35694;BME280;21812;55.536;37.664;2022-12-22T06:49:33;98902.66;;;1.87;80.71
35694;BME280;21812;55.536;37.664;2022-12-22T06:51:59;98900.47;;;1.83;80.71
35694;BME280;21812;55.536;37.664;2022-12-22T06:54:24;98890.56;;;1.76;80.62
35694;BME280;21812;55.536;37.664;2022-12-22T06:56:50;98908.22;;;1.84;80.67
35694;BME280;21812;55.536;37.664;2022-12-22T06:59:15;98894.75;;;1.87;81.02
35694;BME280;21812;55.536;37.664;2022-12-22T07:01:41;98904.66;;;1.93;80.53
35694;BME280;21812;55.536;37.664;2022-12-22T07:04:08;98917.44;;;1.88;80.31
35694;BME280;21812;55.536;37.664;2022-12-22T07:06:34;98912.19;;;1.88;80.52
35694;BME280;21812;55.536;37.664;2022-12-22T07:09:00;98909.25;;;1.91;80.52
35694;BME280;21812;55.536;37.664;2022-12-22T07:11:26;98917.81;;;1.93;80.46
35694;BME280;21812;55.536;37.664;2022-12-22T07:13:51;98915.56;;;1.99;80.55
35694;BME280;21812;55.536;37.664;2022-12-22T07:16:17;98889.34;;;1.89;79.86
35694;BME280;21812;55.536;37.664;2022-12-22T07:18:43;98904.75;;;1.84;79.70
35694;BME280;21812;55.536;37.664;2022-12-22T07:21:10;98848.31;;;1.34;80.19
35694;BME280;21812;55.536;37.664;2022-12-22T07:23:37;98910.00;;;1.58;80.41
35694;BME280;21812;55.536;37.664;2022-12-22T07:26:05;98879.72;;;1.17;81.17
35694;BME280;21812;55.536;37.664;2022-12-22T07:28:32;98906.63;;;1.47;81.98
35694;BME280;21812;55.536;37.664;2022-12-22T07:30:59;98908.66;;;1.53;82.15
35694;BME280;21812;55.536;37.664;2022-12-22T07:33:24;98902.63;;;1.61;82.06
35694;BME280;21812;55.536;37.664;2022-12-22T07:36:12;98907.63;;;1.72;82.00
35694;BME280;21812;55.536;37.664;2022-12-22T07:38:41;98861.53;;;1.42;81.51
35694;BME280;21812;55.536;37.664;2022-12-22T07:41:08;98913.91;;;1.71;81.53
35694;BME280;21812;55.536;37.664;2022-12-22T07:43:56;98883.00;;;1.55;81.71
35694;BME280;21812;55.536;37.664;2022-12-22T07:46:24;98922.00;;;1.78;81.53
35694;BME280;21812;55.536;37.664;2022-12-22T07:48:50;98917.09;;;1.83;81.38
35694;BME280;21812;55.536;37.664;2022-12-22T07:51:34;98921.13;;;1.95;81.24
35694;BME280;21812;55.536;37.664;2022-12-22T07:54:03;98900.16;;;1.86;81.36
35694;BME280;21812;55.536;37.664;2022-12-22T07:56:29;98892.56;;;1.83;80.63
35694;BME280;21812;55.536;37.664;2022-12-22T07:58:57;98907.81;;;1.97;80.69
35694;BME280;21812;55.536;37.664;2022-12-22T08:01:23;98890.44;;;1.86;80.35
35694;BME280;21812;55.536;37.664;2022-12-22T08:03:48;98882.38;;;1.80;80.22
35694;BME280;21812;55.536;37.664;2022-12-22T08:06:14;98906.91;;;1.88;80.27
35694;BME280;21812;55.536;37.664;2022-12-22T08:08:39;98891.91;;;1.81;80.43
35694;BME280;21812;55.536;37.664;2022-12-22T08:11:05;98920.47;;;1.93;80.42
35694;BME280;21812;55.536;37.664;2022-12-22T08:13:31;98928.22;;;1.95;80.62
35694;BME280;21812;55.536;37.664;2022-12-22T08:16:05;98902.94;;;1.84;80.49
35694;BME280;21812;55.536;37.664;2022-12-22T08:18:31;98908.13;;;1.94;80.36
35694;BME280;21812;55.536;37.664;2022-12-22T08:20:57;98904.22;;;1.98;80.06
35694;BME280;21812;55.536;37.664;2022-12-22T08:23:23;98910.34;;;2.07;79.87
35694;BME280;21812;55.536;37.664;2022-12-22T08:25:56;98912.97;;;2.07;79.90
35694;BME280;21812;55.536;37.664;2022-12-22T08:28:24;98873.66;;;1.79;79.72
35694;BME280;21812;55.536;37.664;2022-12-22T08:30:51;98926.81;;;2.09;79.91
35694;BME280;21812;55.536;37.664;2022-12-22T08:33:16;98906.63;;;1.91;79.72
35694;BME280;21812;55.536;37.664;2022-12-22T08:35:42;98927.72;;;2.00;79.84
35694;BME280;21812;55.536;37.664;2022-12-22T08:38:09;98888.59;;;1.79;79.75
35694;BME280;21812;55.536;37.664;2022-12-22T08:40:36;98921.88;;;2.06;79.91
35694;BME280;21812;55.536;37.664;2022-12-22T08:43:05;98911.34;;;2.06;79.88
35694;BME280;21812;55.536;37.664;2022-12-22T08:45:32;98921.13;;;2.22;79.73
35694;BME280;21812;55.536;37.664;2022-12-22T08:47:57;98909.94;;;2.20;79.19
35694;BME280;21812;55.536;37.664;2022-12-22T08:50:23;98910.38;;;2.15;79.18
35694;BME280;21812;55.536;37.664;2022-12-22T08:52:49;98903.78;;;2.11;79.55
35694;BME280;21812;55.536;37.664;2022-12-22T08:55:14;98908.75;;;2.14;79.66
35694;BME280;21812;55.536;37.664;2022-12-22T08:57:40;98914.72;;;2.24;79.79
35694;BME280;21812;55.536;37.664;2022-12-22T09:00:08;98915.72;;;2.23;79.24
35694;BME280;21812;55.536;37.664;2022-12-22T09:02:34;98914.72;;;2.24;79.26
35694;BME280;21812;55.536;37.664;2022-12-22T09:05:01;98902.84;;;2.20;79.27
35694;BME280;21812;55.536;37.664;2022-12-22T09:07:26;98900.22;;;2.20;79.01
35694;BME280;21812;55.536;37.664;2022-12-22T09:09:52;98880.75;;;2.13;78.93
35694;BME280;21812;55.536;37.664;2022-12-22T09:12:19;98898.09;;;2.24;78.95
35694;BME280;21812;55.536;37.664;2022-12-22T09:14:44;98884.66;;;2.09;78.72
35694;BME280;21812;55.536;37.664;2022-12-22T09:17:10;98902.84;;;2.20;78.79
35694;BME280;21812;55.536;37.664;2022-12-22T09:19:36;98919.69;;;2.27;79.13
35694;BME280;21812;55.536;37.664;2022-12-22T09:22:02;98914.41;;;2.27;79.04
35694;BME280;21812;55.536;37.664;2022-12-22T09:24:27;98912.16;;;2.32;79.03
35694;BME280;21812;55.536;37.664;2022-12-22T09:26:53;98925.00;;;2.35;78.55
35694;BME280;21812;55.536;37.664;2022-12-22T09:29:18;98903.88;;;2.27;78.49
35694;BME280;21812;55.536;37.664;2022-12-22T09:31:46;98919.06;;;2.33;78.61
35694;BME280;21812;55.536;37.664;2022-12-22T09:34:14;98917.59;;;2.39;78.20
35694;BME280;21812;55.536;37.664;2022-12-22T09:36:40;98918.25;;;2.41;78.50
35694;BME280;21812;55.536;37.664;2022-12-22T09:39:07;98927.09;;;2.32;78.39
35694;BME280;21812;55.536;37.664;2022-12-22T09:41:59;98928.56;;;2.26;78.74
35694;BME280;21812;55.536;37.664;2022-12-22T09:44:32;98834.19;;;1.61;78.54
35694;BME280;21812;55.536;37.664;2022-12-22T09:47:25;98912.56;;;2.20;79.36
35694;BME280;21812;55.536;37.664;2022-12-22T09:49:55;98917.00;;;2.19;79.07
35694;BME280;21812;55.536;37.664;2022-12-22T09:52:45;98919.88;;;2.34;79.11
35694;BME280;21812;55.536;37.664;2022-12-22T09:55:40;98934.72;;;2.35;78.83
35694;BME280;21812;55.536;37.664;2022-12-22T10:00:41;98871.78;;;1.98;78.61
35694;BME280;21812;55.536;37.664;2022-12-22T10:06:50;98930.22;;;2.27;78.68
35694;BME280;21812;55.536;37.664;2022-12-22T10:08:49;98839.78;;;1.58;78.55
35694;BME280;21812;55.536;37.664;2022-12-22T10:11:16;98896.47;;;1.97;78.74
35694;BME280;21812;55.536;37.664;2022-12-22T10:13:44;98892.31;;;1.94;78.77
35694;BME280;21812;55.536;37.664;2022-12-22T10:16:26;98912.59;;;2.02;78.78
35694;BME280;21812;55.536;37.664;2022-12-22T10:19:00;98932.97;;;2.18;78.91
35694;BME280;21812;55.536;37.664;2022-12-22T10:21:30;98939.34;;;2.15;79.04
35694;BME280;21812;55.536;37.664;2022-12-22T10:23:56;98923.22;;;2.10;79.02
35694;BME280;21812;55.536;37.664;2022-12-22T10:26:27;98878.91;;;1.79;79.33
35694;BME280;21812;55.536;37.664;2022-12-22T10:29:08;98935.53;;;2.09;79.50
35694;BME280;21812;55.536;37.664;2022-12-22T10:31:37;98837.69;;;1.44;79.56
35694;BME280;21812;55.536;37.664;2022-12-22T10:34:19;98871.03;;;1.61;79.68
35694;BME280;21812;55.536;37.664;2022-12-22T10:36:50;98917.41;;;1.80;79.83
35694;BME280;21812;55.536;37.664;2022-12-22T10:39:25;98876.63;;;1.58;79.97
35694;BME280;21812;55.536;37.664;2022-12-22T10:41:54;98868.56;;;1.60;80.35
35694;BME280;21812;55.536;37.664;2022-12-22T10:44:23;98908.59;;;1.89;80.49
35694;BME280;21812;55.536;37.664;2022-12-22T10:46:52;98876.94;;;1.81;80.34
35694;BME280;21812;55.536;37.664;2022-12-22T10:49:39;98915.47;;;2.08;80.12
35694;BME280;21812;55.536;37.664;2022-12-22T10:54:37;98917.91;;;2.36;79.71
35694;BME280;21812;55.536;37.664;2022-12-22T10:57:21;98898.59;;;2.27;79.43
35694;BME280;21812;55.536;37.664;2022-12-22T10:59:58;98771.69;;;1.37;78.70
35694;BME280;21812;55.536;37.664;2022-12-22T11:02:31;98937.50;;;2.33;79.11
35694;BME280;21812;55.536;37.664;2022-12-22T11:05:04;98937.03;;;2.38;79.39
35694;BME280;21812;55.536;37.664;2022-12-22T11:07:33;98909.81;;;2.29;79.13
35694;BME280;21812;55.536;37.664;2022-12-22T11:09:59;98939.22;;;2.51;78.72
35694;BME280;21812;55.536;37.664;2022-12-22T11:12:48;98936.66;;;2.59;79.10
35694;BME280;21812;55.536;37.664;2022-12-22T11:28:57;98945.56;;;2.66;78.72
35694;BME280;21812;55.536;37.664;2022-12-22T11:34:36;98963.00;;;2.59;79.09
35694;BME280;21812;55.536;37.664;2022-12-22T11:40:23;98952.09;;;2.54;78.90
35694;BME280;21812;55.536;37.664;2022-12-22T11:43:00;98957.38;;;2.54;79.24
35694;BME280;21812;55.536;37.664;2022-12-22T12:00:57;98957.59;;;2.34;79.46
35694;BME280;21812;55.536;37.664;2022-12-22T12:26:31;98982.00;;;2.37;79.84
35694;BME280;21812;55.536;37.664;2022-12-22T12:29:14;98978.69;;;2.34;79.94
35694;BME280;21812;55.536;37.664;2022-12-22T12:32:01;98975.16;;;2.52;79.87
35694;BME280;21812;55.536;37.664;2022-12-22T12:34:33;98925.06;;;2.18;79.29
35694;BME280;21812;55.536;37.664;2022-12-22T12:37:04;98968.47;;;2.40;78.95
35694;BME280;21812;55.536;37.664;2022-12-22T12:44:46;98971.91;;;2.32;79.18
35694;BME280;21812;55.536;37.664;2022-12-22T12:52:15;98980.31;;;2.35;79.14
35694;BME280;21812;55.536;37.664;2022-12-22T12:54:45;98988.91;;;2.38;79.19
35694;BME280;21812;55.536;37.664;2022-12-22T12:57:30;98988.78;;;2.47;79.72
35694;BME280;21812;55.536;37.664;2022-12-22T13:03:00;98929.97;;;2.12;79.52
35694;BME280;21812;55.536;37.664;2022-12-22T13:20:58;98987.91;;;2.65;78.34
35694;BME280;21812;55.536;37.664;2022-12-22T13:23:45;98997.69;;;2.72;78.81
35694;BME280;21812;55.536;37.664;2022-12-22T13:29:45;98947.72;;;2.37;78.87
35694;BME280;21812;55.536;37.664;2022-12-22T13:31:51;99002.56;;;2.59;78.92
35694;BME280;21812;55.536;37.664;2022-12-22T13:34:39;99003.38;;;2.60;79.11
35694;BME280;21812;55.536;37.664;2022-12-22T13:39:42;98959.56;;;2.32;78.78
35694;BME280;21812;55.536;37.664;2022-12-22T13:42:26;98993.97;;;2.57;78.97
35694;BME280;21812;55.536;37.664;2022-12-22T13:44:53;99003.22;;;2.61;79.11
35694;BME280;21812;55.536;37.664;2022-12-22T13:47:19;98998.63;;;2.63;79.03
35694;BME280;21812;55.536;37.664;2022-12-22T13:49:44;99016.06;;;2.64;79.19
35694;BME280;21812;55.536;37.664;2022-12-22T13:52:12;99006.84;;;2.68;78.75
35694;BME280;21812;55.536;37.664;2022-12-22T13:54:43;98998.41;;;2.57;78.09
35694;BME280;21812;55.536;37.664;2022-12-22T13:57:16;99003.72;;;2.65;78.71
35694;BME280;21812;55.536;37.664;2022-12-22T13:59:44;98947.47;;;2.22;78.79
35694;BME280;21812;55.536;37.664;2022-12-22T14:04:39;98917.72;;;2.03;79.64
35694;BME280;21812;55.536;37.664;2022-12-22T14:09:36;99023.97;;;2.64;79.36
35694;BME280;21812;55.536;37.664;2022-12-22T14:12:12;98969.47;;;2.39;79.10
35694;BME280;21812;55.536;37.664;2022-12-22T14:14:41;99014.03;;;2.50;78.79
35694;BME280;21812;55.536;37.664;2022-12-22T14:19:48;98919.78;;;1.91;78.59
35694;BME280;21812;55.536;37.664;2022-12-22T14:22:20;98981.72;;;2.22;79.17
35694;BME280;21812;55.536;37.664;2022-12-22T14:24:52;98976.94;;;2.17;79.34
35694;BME280;21812;55.536;37.664;2022-12-22T14:29:47;99023.22;;;2.46;79.47
35694;BME280;21812;55.536;37.664;2022-12-22T14:32:33;99014.06;;;2.58;80.09
35694;BME280;21812;55.536;37.664;2022-12-22T14:34:59;99012.44;;;2.57;79.42
35694;BME280;21812;55.536;37.664;2022-12-22T14:37:25;99008.00;;;2.40;78.87
35694;BME280;21812;55.536;37.664;2022-12-22T14:39:54;98956.81;;;2.16;79.21
35694;BME280;21812;55.536;37.664;2022-12-22T14:42:20;98982.19;;;2.17;79.21
35694;BME280;21812;55.536;37.664;2022-12-22T14:44:46;98999.66;;;2.44;79.80
35694;BME280;21812;55.536;37.664;2022-12-22T14:47:15;98962.91;;;2.17;79.47
35694;BME280;21812;55.536;37.664;2022-12-22T14:49:47;99008.13;;;2.56;79.54
35694;BME280;21812;55.536;37.664;2022-12-22T14:52:25;98983.72;;;2.28;79.12
35694;BME280;21812;55.536;37.664;2022-12-22T14:54:54;99018.38;;;2.59;79.47
35694;BME280;21812;55.536;37.664;2022-12-22T14:57:29;98941.94;;;2.07;78.95
35694;BME280;21812;55.536;37.664;2022-12-22T15:00:05;99060.84;;;2.56;78.89
35694;BME280;21812;55.536;37.664;2022-12-22T15:02:37;98920.50;;;1.75;79.22
35694;BME280;21812;55.536;37.664;2022-12-22T15:05:08;99039.22;;;2.52;79.30
35694;BME280;21812;55.536;37.664;2022-12-22T15:07:45;99052.44;;;2.61;79.43
35694;BME280;21812;55.536;37.664;2022-12-22T15:10:11;99041.03;;;2.52;79.15
35694;BME280;21812;55.536;37.664;2022-12-22T15:12:38;99006.91;;;2.24;79.28
35694;BME280;21812;55.536;37.664;2022-12-22T15:15:20;99039.28;;;2.34;78.91
35694;BME280;21812;55.536;37.664;2022-12-22T15:17:48;98985.91;;;2.06;79.63
35694;BME280;21812;55.536;37.664;2022-12-22T15:20:18;99013.19;;;2.23;79.77
35694;BME280;21812;55.536;37.664;2022-12-22T15:22:44;99056.19;;;2.50;79.48
35694;BME280;21812;55.536;37.664;2022-12-22T15:25:19;99057.00;;;2.50;79.59
35694;BME280;21812;55.536;37.664;2022-12-22T15:27:45;99054.09;;;2.35;79.43
35694;BME280;21812;55.536;37.664;2022-12-22T15:30:13;99027.66;;;2.19;79.65
35694;BME280;21812;55.536;37.664;2022-12-22T15:32:40;99043.88;;;2.32;79.83
35694;BME280;21812;55.536;37.664;2022-12-22T15:35:18;99021.34;;;2.12;79.76
35694;BME280;21812;55.536;37.664;2022-12-22T15:37:44;99056.06;;;2.33;79.98
35694;BME280;21812;55.536;37.664;2022-12-22T15:40:18;99011.19;;;1.99;80.11
35694;BME280;21812;55.536;37.664;2022-12-22T15:42:44;99064.59;;;2.27;80.35
35694;BME280;21812;55.536;37.664;2022-12-22T15:45:11;99062.56;;;2.21;80.48